sensor_id;sensor_type;location;lat;lon;timestamp;pressure;altitude;pressure_sealevel;temperature;humidity
41078;BME280;26823;42.662;23.352;2023-02-02T00:01:42;94830.31;;;5.28;47.09
41078;BME280;26823;42.662;23.352;2023-02-02T00:04:15;94830.13;;;5.35;46.00
41078;BME280;26823;42.662;23.352;2023-02-02T00:06:40;94835.06;;;5.60;46.09
41078;BME280;26823;42.662;23.352;2023-02-02T00:09:06;94844.63;;;6.12;44.96
41078;BME280;26823;42.662;23.352;2023-02-02T00:11:31;94843.31;;;6.15;44.47
41078;BME280;26823;42.662;23.352;2023-02-02T00:13:56;94833.56;;;5.86;45.04
41078;BME280;26823;42.662;23.352;2023-02-02T00:18:50;94823.09;;;5.51;46.04
41078;BME280;26823;42.662;23.352;2023-02-02T00:21:16;94829.88;;;5.36;46.10
41078;BME280;26823;42.662;23.352;2023-02-02T00:23:49;94820.78;;;5.20;46.78
41078;BME280;26823;42.662;23.352;2023-02-02T00:26:15;94837.13;;;5.19;46.81
41078;BME280;26823;42.662;23.352;2023-02-02T00:28:47;94836.44;;;5.12;46.64
41078;BME280;26823;42.662;23.352;2023-02-02T00:31:19;94829.78;;;4.97;46.86
41078;BME280;26823;42.662;23.352;2023-02-02T00:33:45;94845.72;;;4.87;48.03
41078;BME280;26823;42.662;23.352;2023-02-02T00:36:11;94837.91;;;4.85;48.09
41078;BME280;26823;42.662;23.352;2023-02-02T00:38:36;94846.09;;;4.79;48.03
41078;BME280;26823;42.662;23.352;2023-02-02T00:41:03;94836.25;;;4.67;47.71
41078;BME280;26823;42.662;23.352;2023-02-02T00:43:28;94841.66;;;4.55;48.47
41078;BME280;26823;42.662;23.352;2023-02-02T00:45:54;94855.41;;;4.59;48.48
41078;BME280;26823;42.662;23.352;2023-02-02T00:48:20;94869.50;;;4.54;48.55
41078;BME280;26823;42.662;23.352;2023-02-02T00:50:45;94850.66;;;4.49;48.73
41078;BME280;26823;42.662;23.352;2023-02-02T00:53:10;94859.44;;;4.45;49.64
41078;BME280;26823;42.662;23.352;2023-02-02T00:55:36;94849.50;;;4.45;50.00
41078;BME280;26823;42.662;23.352;2023-02-02T00:58:01;94852.53;;;4.49;50.38
41078;BME280;26823;42.662;23.352;2023-02-02T01:00:27;94827.91;;;4.35;50.75
41078;BME280;26823;42.662;23.352;2023-02-02T01:02:53;94859.66;;;4.43;51.37
41078;BME280;26823;42.662;23.352;2023-02-02T01:05:19;94844.06;;;4.40;51.72
41078;BME280;26823;42.662;23.352;2023-02-02T01:07:45;94838.09;;;4.50;52.52
41078;BME280;26823;42.662;23.352;2023-02-02T01:10:14;94829.22;;;4.49;52.51
41078;BME280;26823;42.662;23.352;2023-02-02T01:12:40;94827.41;;;4.38;52.56
41078;BME280;26823;42.662;23.352;2023-02-02T01:15:07;94837.88;;;4.39;53.21
41078;BME280;26823;42.662;23.352;2023-02-02T01:17:32;94825.47;;;4.33;53.55
41078;BME280;26823;42.662;23.352;2023-02-02T01:19:58;94819.44;;;4.26;54.55
41078;BME280;26823;42.662;23.352;2023-02-02T01:22:23;94822.56;;;4.23;54.62
41078;BME280;26823;42.662;23.352;2023-02-02T01:24:49;94823.88;;;4.20;54.49
41078;BME280;26823;42.662;23.352;2023-02-02T01:27:14;94820.88;;;4.17;54.84
41078;BME280;26823;42.662;23.352;2023-02-02T01:29:39;94808.34;;;4.05;55.46
41078;BME280;26823;42.662;23.352;2023-02-02T01:32:05;94812.53;;;4.01;55.95
41078;BME280;26823;42.662;23.352;2023-02-02T01:34:31;94806.59;;;3.99;56.26
41078;BME280;26823;42.662;23.352;2023-02-02T01:36:56;94794.72;;;3.95;56.30
41078;BME280;26823;42.662;23.352;2023-02-02T01:39:22;94807.78;;;3.91;55.95
41078;BME280;26823;42.662;23.352;2023-02-02T01:41:47;94800.47;;;3.87;55.54
41078;BME280;26823;42.662;23.352;2023-02-02T01:47:17;94783.75;;;3.68;55.90
41078;BME280;26823;42.662;23.352;2023-02-02T01:49:50;94806.66;;;3.75;56.47
41078;BME280;26823;42.662;23.352;2023-02-02T01:52:18;94797.25;;;3.73;56.61
41078;BME280;26823;42.662;23.352;2023-02-02T01:54:56;94787.47;;;3.67;57.09
41078;BME280;26823;42.662;23.352;2023-02-02T01:57:33;94794.69;;;3.54;58.38
41078;BME280;26823;42.662;23.352;2023-02-02T02:00:03;94777.97;;;3.35;58.25
41078;BME280;26823;42.662;23.352;2023-02-02T02:02:29;94785.19;;;3.35;58.73
41078;BME280;26823;42.662;23.352;2023-02-02T02:04:56;94779.84;;;3.35;59.44
41078;BME280;26823;42.662;23.352;2023-02-02T02:07:24;94767.19;;;3.30;59.33
41078;BME280;26823;42.662;23.352;2023-02-02T02:09:49;94776.69;;;3.38;59.61
41078;BME280;26823;42.662;23.352;2023-02-02T02:12:15;94772.91;;;3.22;59.43
41078;BME280;26823;42.662;23.352;2023-02-02T02:14:42;94785.53;;;3.26;59.15
41078;BME280;26823;42.662;23.352;2023-02-02T02:17:52;94785.44;;;3.33;59.02
41078;BME280;26823;42.662;23.352;2023-02-02T02:27:02;94794.97;;;3.17;59.85
41078;BME280;26823;42.662;23.352;2023-02-02T02:34:47;94789.59;;;2.93;60.52
41078;BME280;26823;42.662;23.352;2023-02-02T02:38:20;94793.53;;;2.91;60.84
41078;BME280;26823;42.662;23.352;2023-02-02T02:40:34;94786.13;;;2.93;60.31
41078;BME280;26823;42.662;23.352;2023-02-02T02:43:30;94782.38;;;2.82;60.67
41078;BME280;26823;42.662;23.352;2023-02-02T02:45:53;94783.31;;;2.76;61.76
41078;BME280;26823;42.662;23.352;2023-02-02T02:48:19;94787.25;;;2.73;62.25
41078;BME280;26823;42.662;23.352;2023-02-02T02:50:44;94769.00;;;2.58;61.19
41078;BME280;26823;42.662;23.352;2023-02-02T02:53:17;94785.06;;;2.70;62.22
41078;BME280;26823;42.662;23.352;2023-02-02T02:58:14;94778.53;;;2.66;61.16
41078;BME280;26823;42.662;23.352;2023-02-02T03:00:57;94768.19;;;2.58;61.22
41078;BME280;26823;42.662;23.352;2023-02-02T03:06:55;94781.78;;;2.68;61.52
41078;BME280;26823;42.662;23.352;2023-02-02T03:09:29;94774.38;;;2.70;61.36
41078;BME280;26823;42.662;23.352;2023-02-02T03:11:59;94778.88;;;2.70;61.02
41078;BME280;26823;42.662;23.352;2023-02-02T03:14:25;94775.41;;;2.69;61.47
41078;BME280;26823;42.662;23.352;2023-02-02T03:16:51;94790.75;;;2.74;61.20
41078;BME280;26823;42.662;23.352;2023-02-02T03:19:17;94784.56;;;2.73;60.76
41078;BME280;26823;42.662;23.352;2023-02-02T03:21:42;94774.72;;;2.74;61.00
41078;BME280;26823;42.662;23.352;2023-02-02T03:24:08;94771.13;;;2.80;60.90
41078;BME280;26823;42.662;23.352;2023-02-02T03:26:34;94774.13;;;2.84;60.04
41078;BME280;26823;42.662;23.352;2023-02-02T03:29:00;94770.78;;;2.76;60.29
41078;BME280;26823;42.662;23.352;2023-02-02T03:31:26;94772.28;;;2.72;60.77
41078;BME280;26823;42.662;23.352;2023-02-02T03:33:53;94774.72;;;2.74;60.63
41078;BME280;26823;42.662;23.352;2023-02-02T03:36:18;94778.78;;;2.76;60.43
41078;BME280;26823;42.662;23.352;2023-02-02T03:38:44;94779.47;;;2.72;60.18
41078;BME280;26823;42.662;23.352;2023-02-02T03:41:09;94765.41;;;2.65;60.73
41078;BME280;26823;42.662;23.352;2023-02-02T03:43:35;94772.50;;;2.59;60.76
41078;BME280;26823;42.662;23.352;2023-02-02T03:46:04;94776.69;;;2.67;60.89
41078;BME280;26823;42.662;23.352;2023-02-02T03:48:31;94777.63;;;2.72;60.42
41078;BME280;26823;42.662;23.352;2023-02-02T03:50:58;94785.38;;;2.62;61.88
41078;BME280;26823;42.662;23.352;2023-02-02T03:53:24;94796.75;;;2.57;61.97
41078;BME280;26823;42.662;23.352;2023-02-02T03:55:49;94782.69;;;2.50;62.30
41078;BME280;26823;42.662;23.352;2023-02-02T03:58:14;94788.25;;;2.49;62.00
41078;BME280;26823;42.662;23.352;2023-02-02T04:00:42;94789.75;;;2.44;62.42
41078;BME280;26823;42.662;23.352;2023-02-02T04:03:07;94793.22;;;2.33;63.75
41078;BME280;26823;42.662;23.352;2023-02-02T04:05:33;94766.06;;;2.06;63.52
41078;BME280;26823;42.662;23.352;2023-02-02T04:07:58;94775.59;;;2.14;64.40
41078;BME280;26823;42.662;23.352;2023-02-02T04:10:24;94787.06;;;2.14;64.66
41078;BME280;26823;42.662;23.352;2023-02-02T04:12:49;94800.28;;;2.09;65.07
41078;BME280;26823;42.662;23.352;2023-02-02T04:15:15;94791.00;;;2.11;65.30
41078;BME280;26823;42.662;23.352;2023-02-02T04:17:40;94780.03;;;1.89;65.92
41078;BME280;26823;42.662;23.352;2023-02-02T04:20:06;94776.72;;;1.75;66.72
41078;BME280;26823;42.662;23.352;2023-02-02T04:22:32;94800.06;;;1.80;67.24
41078;BME280;26823;42.662;23.352;2023-02-02T04:24:57;94800.41;;;1.84;67.10
41078;BME280;26823;42.662;23.352;2023-02-02T04:27:23;94799.00;;;1.81;67.86
41078;BME280;26823;42.662;23.352;2023-02-02T04:29:48;94792.47;;;1.77;67.92
41078;BME280;26823;42.662;23.352;2023-02-02T04:32:14;94802.72;;;1.80;67.52
41078;BME280;26823;42.662;23.352;2023-02-02T04:34:41;94798.41;;;1.79;67.47
41078;BME280;26823;42.662;23.352;2023-02-02T04:37:06;94788.28;;;1.69;67.32
41078;BME280;26823;42.662;23.352;2023-02-02T04:39:32;94796.66;;;1.73;67.64
41078;BME280;26823;42.662;23.352;2023-02-02T04:42:03;94789.44;;;1.73;67.35
41078;BME280;26823;42.662;23.352;2023-02-02T04:44:29;94796.66;;;1.73;67.22
41078;BME280;26823;42.662;23.352;2023-02-02T04:46:54;94806.34;;;1.67;67.87
41078;BME280;26823;42.662;23.352;2023-02-02T04:49:20;94809.75;;;1.56;67.82
41078;BME280;26823;42.662;23.352;2023-02-02T04:51:46;94809.75;;;1.56;67.80
41078;BME280;26823;42.662;23.352;2023-02-02T04:54:11;94812.41;;;1.56;68.17
41078;BME280;26823;42.662;23.352;2023-02-02T04:56:37;94795.09;;;1.46;67.89
41078;BME280;26823;42.662;23.352;2023-02-02T04:59:02;94807.31;;;1.54;67.86
41078;BME280;26823;42.662;23.352;2023-02-02T05:01:28;94816.13;;;1.55;68.18
41078;BME280;26823;42.662;23.352;2023-02-02T05:03:55;94813.00;;;1.58;68.36
41078;BME280;26823;42.662;23.352;2023-02-02T05:06:21;94820.88;;;1.53;68.13
41078;BME280;26823;42.662;23.352;2023-02-02T05:08:46;94814.94;;;1.51;68.03
41078;BME280;26823;42.662;23.352;2023-02-02T05:11:18;94807.00;;;1.44;68.32
41078;BME280;26823;42.662;23.352;2023-02-02T05:13:48;94794.41;;;1.33;68.58
41078;BME280;26823;42.662;23.352;2023-02-02T05:16:14;94803.69;;;1.49;68.30
41078;BME280;26823;42.662;23.352;2023-02-02T05:18:48;94802.44;;;1.51;68.04
41078;BME280;26823;42.662;23.352;2023-02-02T05:21:14;94810.44;;;1.51;67.55
41078;BME280;26823;42.662;23.352;2023-02-02T05:23:39;94766.13;;;1.32;66.71
41078;BME280;26823;42.662;23.352;2023-02-02T05:26:04;94788.44;;;1.37;67.29
41078;BME280;26823;42.662;23.352;2023-02-02T05:28:30;94797.19;;;1.44;67.95
41078;BME280;26823;42.662;23.352;2023-02-02T05:30:55;94799.00;;;1.44;67.55
41078;BME280;26823;42.662;23.352;2023-02-02T05:33:21;94805.53;;;1.48;67.30
41078;BME280;26823;42.662;23.352;2023-02-02T05:35:47;94811.91;;;1.47;66.57
41078;BME280;26823;42.662;23.352;2023-02-02T05:38:14;94810.44;;;1.51;66.84
41078;BME280;26823;42.662;23.352;2023-02-02T05:40:40;94801.75;;;1.37;67.92
41078;BME280;26823;42.662;23.352;2023-02-02T05:43:05;94816.63;;;1.26;68.80
41078;BME280;26823;42.662;23.352;2023-02-02T05:45:31;94823.28;;;1.17;69.00
41078;BME280;26823;42.662;23.352;2023-02-02T05:47:57;94822.88;;;1.13;69.23
41078;BME280;26823;42.662;23.352;2023-02-02T05:50:22;94819.56;;;1.18;69.06
41078;BME280;26823;42.662;23.352;2023-02-02T05:52:49;94814.81;;;1.02;69.63
41078;BME280;26823;42.662;23.352;2023-02-02T05:55:15;94829.09;;;1.07;69.33
41078;BME280;26823;42.662;23.352;2023-02-02T05:57:42;94820.22;;;1.13;69.48
41078;BME280;26823;42.662;23.352;2023-02-02T06:00:09;94832.50;;;1.14;68.96
41078;BME280;26823;42.662;23.352;2023-02-02T06:02:34;94824.69;;;1.20;69.77
41078;BME280;26823;42.662;23.352;2023-02-02T06:05:00;94819.97;;;1.22;69.32
41078;BME280;26823;42.662;23.352;2023-02-02T06:07:25;94830.91;;;1.32;69.45
41078;BME280;26823;42.662;23.352;2023-02-02T06:09:50;94822.53;;;1.28;69.43
41078;BME280;26823;42.662;23.352;2023-02-02T06:12:16;94819.22;;;1.33;69.38
41078;BME280;26823;42.662;23.352;2023-02-02T06:14:43;94815.31;;;1.36;68.19
41078;BME280;26823;42.662;23.352;2023-02-02T06:17:08;94828.09;;;1.45;68.54
41078;BME280;26823;42.662;23.352;2023-02-02T06:19:34;94824.19;;;1.48;68.09
41078;BME280;26823;42.662;23.352;2023-02-02T06:21:59;94838.28;;;1.55;68.57
41078;BME280;26823;42.662;23.352;2023-02-02T06:24:24;94851.53;;;1.62;68.14
41078;BME280;26823;42.662;23.352;2023-02-02T06:26:50;94838.56;;;1.66;68.27
41078;BME280;26823;42.662;23.352;2023-02-02T06:29:15;94853.75;;;1.65;67.86
41078;BME280;26823;42.662;23.352;2023-02-02T06:31:41;94848.91;;;1.37;68.77
41078;BME280;26823;42.662;23.352;2023-02-02T06:34:08;94866.56;;;1.56;68.70
41078;BME280;26823;42.662;23.352;2023-02-02T06:36:35;94865.91;;;1.61;68.38
41078;BME280;26823;42.662;23.352;2023-02-02T06:39:00;94860.06;;;1.52;69.05
41078;BME280;26823;42.662;23.352;2023-02-02T06:41:28;94864.75;;;1.32;69.55
41078;BME280;26823;42.662;23.352;2023-02-02T06:43:54;94864.53;;;1.33;69.32
41078;BME280;26823;42.662;23.352;2023-02-02T06:46:20;94884.38;;;1.37;69.72
41078;BME280;26823;42.662;23.352;2023-02-02T06:48:45;94861.34;;;1.24;69.63
41078;BME280;26823;42.662;23.352;2023-02-02T06:51:11;94858.88;;;1.23;69.69
41078;BME280;26823;42.662;23.352;2023-02-02T06:53:36;94848.22;;;1.23;69.62
41078;BME280;26823;42.662;23.352;2023-02-02T06:56:04;94871.94;;;1.31;70.15
41078;BME280;26823;42.662;23.352;2023-02-02T06:58:31;94874.09;;;1.41;69.95
41078;BME280;26823;42.662;23.352;2023-02-02T07:01:08;94879.31;;;1.29;69.51
41078;BME280;26823;42.662;23.352;2023-02-02T07:03:35;94889.81;;;1.24;70.50
41078;BME280;26823;42.662;23.352;2023-02-02T07:08:37;94877.31;;;1.24;69.95
41078;BME280;26823;42.662;23.352;2023-02-02T07:11:02;94896.34;;;1.28;69.84
41078;BME280;26823;42.662;23.352;2023-02-02T07:13:28;94883.84;;;1.28;69.75
41078;BME280;26823;42.662;23.352;2023-02-02T07:15:53;94876.16;;;1.39;69.40
41078;BME280;26823;42.662;23.352;2023-02-02T07:18:21;94857.81;;;1.30;69.05
41078;BME280;26823;42.662;23.352;2023-02-02T07:20:47;94862.44;;;1.35;69.38
41078;BME280;26823;42.662;23.352;2023-02-02T07:23:12;94869.56;;;1.41;68.98
41078;BME280;26823;42.662;23.352;2023-02-02T07:25:37;94851.72;;;1.23;69.30
41078;BME280;26823;42.662;23.352;2023-02-02T07:28:03;94867.91;;;1.22;70.09
41078;BME280;26823;42.662;23.352;2023-02-02T07:30:28;94881.56;;;1.32;69.85
41078;BME280;26823;42.662;23.352;2023-02-02T07:32:54;94878.91;;;1.32;69.99
41078;BME280;26823;42.662;23.352;2023-02-02T07:35:20;94894.88;;;1.32;70.45
41078;BME280;26823;42.662;23.352;2023-02-02T07:37:53;94903.56;;;1.46;70.53
41078;BME280;26823;42.662;23.352;2023-02-02T07:40:19;94901.44;;;1.73;69.75
41078;BME280;26823;42.662;23.352;2023-02-02T07:42:46;94894.22;;;1.81;69.01
41078;BME280;26823;42.662;23.352;2023-02-02T07:45:13;94895.03;;;2.18;68.46
41078;BME280;26823;42.662;23.352;2023-02-02T07:47:38;94894.91;;;2.43;67.08
41078;BME280;26823;42.662;23.352;2023-02-02T07:50:04;94875.72;;;2.35;66.43
41078;BME280;26823;42.662;23.352;2023-02-02T07:52:29;94883.25;;;2.56;66.26
41078;BME280;26823;42.662;23.352;2023-02-02T07:54:55;94881.09;;;2.77;64.47
41078;BME280;26823;42.662;23.352;2023-02-02T07:57:20;94871.00;;;3.33;63.81
41078;BME280;26823;42.662;23.352;2023-02-02T07:59:46;94853.38;;;4.37;61.33
41078;BME280;26823;42.662;23.352;2023-02-02T08:02:11;94865.09;;;6.63;52.96
41078;BME280;26823;42.662;23.352;2023-02-02T08:04:36;94867.75;;;8.41;47.17
41078;BME280;26823;42.662;23.352;2023-02-02T08:07:02;94863.09;;;10.08;43.50
41078;BME280;26823;42.662;23.352;2023-02-02T08:09:27;94858.34;;;12.14;38.23
41078;BME280;26823;42.662;23.352;2023-02-02T08:11:53;94871.31;;;13.28;34.90
41078;BME280;26823;42.662;23.352;2023-02-02T08:14:18;94863.06;;;14.04;33.53
41078;BME280;26823;42.662;23.352;2023-02-02T08:16:43;94851.13;;;13.86;33.17
41078;BME280;26823;42.662;23.352;2023-02-02T08:19:09;94817.78;;;12.71;34.06
41078;BME280;26823;42.662;23.352;2023-02-02T08:21:35;94839.19;;;11.01;37.25
41078;BME280;26823;42.662;23.352;2023-02-02T08:24:00;94833.72;;;9.81;39.90
41078;BME280;26823;42.662;23.352;2023-02-02T08:26:28;94851.50;;;8.94;42.05
41078;BME280;26823;42.662;23.352;2023-02-02T08:28:59;94850.50;;;8.31;44.98
41078;BME280;26823;42.662;23.352;2023-02-02T08:31:37;94827.91;;;7.47;47.24
41078;BME280;26823;42.662;23.352;2023-02-02T08:34:04;94828.25;;;7.56;47.27
41078;BME280;26823;42.662;23.352;2023-02-02T08:36:29;94831.22;;;8.02;46.06
41078;BME280;26823;42.662;23.352;2023-02-02T08:38:59;94829.59;;;8.59;44.33
41078;BME280;26823;42.662;23.352;2023-02-02T08:41:24;94818.94;;;8.27;45.42
41078;BME280;26823;42.662;23.352;2023-02-02T08:43:50;94819.72;;;8.17;45.51
41078;BME280;26823;42.662;23.352;2023-02-02T08:46:17;94822.66;;;7.67;47.03
41078;BME280;26823;42.662;23.352;2023-02-02T08:48:44;94804.06;;;7.23;45.96
41078;BME280;26823;42.662;23.352;2023-02-02T08:51:12;94818.66;;;7.27;45.89
41078;BME280;26823;42.662;23.352;2023-02-02T08:53:39;94796.44;;;7.10;45.66
41078;BME280;26823;42.662;23.352;2023-02-02T08:56:17;94792.16;;;7.14;45.52
41078;BME280;26823;42.662;23.352;2023-02-02T08:58:51;94806.84;;;7.33;45.78
41078;BME280;26823;42.662;23.352;2023-02-02T09:01:28;94815.16;;;7.32;45.36
41078;BME280;26823;42.662;23.352;2023-02-02T09:03:55;94808.34;;;7.19;45.55
41078;BME280;26823;42.662;23.352;2023-02-02T09:06:25;94799.56;;;6.96;45.67
41078;BME280;26823;42.662;23.352;2023-02-02T09:08:51;94819.25;;;7.02;45.98
41078;BME280;26823;42.662;23.352;2023-02-02T09:11:18;94823.16;;;6.62;48.83
41078;BME280;26823;42.662;23.352;2023-02-02T09:13:45;94813.22;;;6.35;49.48
41078;BME280;26823;42.662;23.352;2023-02-02T09:16:14;94804.53;;;6.28;50.21
41078;BME280;26823;42.662;23.352;2023-02-02T09:18:40;94803.06;;;5.76;52.09
41078;BME280;26823;42.662;23.352;2023-02-02T09:21:08;94805.53;;;5.60;53.19
41078;BME280;26823;42.662;23.352;2023-02-02T09:23:36;94808.03;;;5.67;53.33
41078;BME280;26823;42.662;23.352;2023-02-02T09:26:28;94795.88;;;5.59;53.64
41078;BME280;26823;42.662;23.352;2023-02-02T09:28:58;94802.25;;;5.36;54.07
41078;BME280;26823;42.662;23.352;2023-02-02T09:31:27;94801.94;;;5.32;54.86
41078;BME280;26823;42.662;23.352;2023-02-02T09:33:59;94797.94;;;5.18;54.77
41078;BME280;26823;42.662;23.352;2023-02-02T09:36:25;94791.53;;;5.36;54.95
41078;BME280;26823;42.662;23.352;2023-02-02T09:38:51;94785.84;;;5.32;54.48
41078;BME280;26823;42.662;23.352;2023-02-02T09:52:29;94778.91;;;5.98;51.89
41078;BME280;26823;42.662;23.352;2023-02-02T09:55:01;94770.88;;;6.20;51.06
41078;BME280;26823;42.662;23.352;2023-02-02T09:57:35;94765.13;;;6.33;50.87
41078;BME280;26823;42.662;23.352;2023-02-02T10:00:03;94728.59;;;6.10;52.59
41078;BME280;26823;42.662;23.352;2023-02-02T10:02:38;94764.69;;;6.74;50.26
41078;BME280;26823;42.662;23.352;2023-02-02T10:05:18;94762.75;;;7.40;45.75
41078;BME280;26823;42.662;23.352;2023-02-02T10:07:50;94751.69;;;7.31;48.86
41078;BME280;26823;42.662;23.352;2023-02-02T10:10:21;94746.63;;;6.69;49.95
41078;BME280;26823;42.662;23.352;2023-02-02T10:13:00;94744.47;;;6.66;51.01
41078;BME280;26823;42.662;23.352;2023-02-02T10:15:58;94741.94;;;6.87;51.26
41078;BME280;26823;42.662;23.352;2023-02-02T10:21:10;94731.78;;;7.37;48.40
41078;BME280;26823;42.662;23.352;2023-02-02T10:23:39;94738.72;;;7.71;47.16
41078;BME280;26823;42.662;23.352;2023-02-02T10:31:42;94739.00;;;8.69;45.09
41078;BME280;26823;42.662;23.352;2023-02-02T10:39:37;94718.03;;;10.53;40.68
41078;BME280;26823;42.662;23.352;2023-02-02T10:42:34;94714.78;;;11.50;37.47
41078;BME280;26823;42.662;23.352;2023-02-02T10:45:17;94703.22;;;12.17;34.63
41078;BME280;26823;42.662;23.352;2023-02-02T10:47:43;94708.53;;;11.79;35.07
41078;BME280;26823;42.662;23.352;2023-02-02T10:52:45;94689.66;;;12.36;33.21
41078;BME280;26823;42.662;23.352;2023-02-02T11:00:56;94667.81;;;13.17;32.15
41078;BME280;26823;42.662;23.352;2023-02-02T11:03:27;94667.47;;;13.80;30.66
41078;BME280;26823;42.662;23.352;2023-02-02T11:05:52;94659.84;;;13.35;29.46
41078;BME280;26823;42.662;23.352;2023-02-02T11:08:42;94665.47;;;12.39;31.12
41078;BME280;26823;42.662;23.352;2023-02-02T11:11:29;94646.13;;;13.12;31.00
41078;BME280;26823;42.662;23.352;2023-02-02T11:14:13;94644.19;;;14.15;30.61
41078;BME280;26823;42.662;23.352;2023-02-02T11:16:45;94653.56;;;14.82;28.91
41078;BME280;26823;42.662;23.352;2023-02-02T11:19:27;94653.69;;;15.23;27.81
41078;BME280;26823;42.662;23.352;2023-02-02T11:21:56;94646.72;;;14.48;28.55
41078;BME280;26823;42.662;23.352;2023-02-02T11:24:28;94653.53;;;14.23;28.07
41078;BME280;26823;42.662;23.352;2023-02-02T11:29:34;94630.56;;;14.89;28.04
41078;BME280;26823;42.662;23.352;2023-02-02T11:38:09;94622.97;;;14.63;27.53
41078;BME280;26823;42.662;23.352;2023-02-02T11:40:41;94608.88;;;15.06;27.46
41078;BME280;26823;42.662;23.352;2023-02-02T11:43:25;94597.97;;;14.38;27.53
41078;BME280;26823;42.662;23.352;2023-02-02T11:45:58;94610.00;;;14.60;28.13
41078;BME280;26823;42.662;23.352;2023-02-02T11:51:24;94604.13;;;14.89;26.88
41078;BME280;26823;42.662;23.352;2023-02-02T11:54:22;94604.59;;;14.46;26.99
41078;BME280;26823;42.662;23.352;2023-02-02T11:56:49;94595.72;;;14.77;27.74
41078;BME280;26823;42.662;23.352;2023-02-02T11:59:45;94593.03;;;14.63;26.78
41078;BME280;26823;42.662;23.352;2023-02-02T12:04:36;94576.88;;;14.44;27.79
41078;BME280;26823;42.662;23.352;2023-02-02T12:07:37;94586.94;;;14.80;27.94
41078;BME280;26823;42.662;23.352;2023-02-02T12:18:39;94596.41;;;15.94;25.79
41078;BME280;26823;42.662;23.352;2023-02-02T12:21:15;94601.91;;;15.63;26.42
41078;BME280;26823;42.662;23.352;2023-02-02T12:26:33;94583.03;;;14.95;27.54
41078;BME280;26823;42.662;23.352;2023-02-02T12:29:33;94587.47;;;14.45;28.07
41078;BME280;26823;42.662;23.352;2023-02-02T12:48:51;94597.63;;;10.61;31.99
41078;BME280;26823;42.662;23.352;2023-02-02T12:54:04;94582.63;;;10.05;33.51
41078;BME280;26823;42.662;23.352;2023-02-02T13:13:22;94588.50;;;8.91;36.17
41078;BME280;26823;42.662;23.352;2023-02-02T13:15:57;94575.25;;;9.05;35.83
41078;BME280;26823;42.662;23.352;2023-02-02T13:18:52;94586.00;;;9.21;36.00
41078;BME280;26823;42.662;23.352;2023-02-02T13:21:20;94585.47;;;9.19;35.66
41078;BME280;26823;42.662;23.352;2023-02-02T13:24:05;94590.88;;;9.19;35.78
41078;BME280;26823;42.662;23.352;2023-02-02T13:26:36;94552.06;;;8.99;35.66
41078;BME280;26823;42.662;23.352;2023-02-02T13:31:59;94577.56;;;9.38;36.01
41078;BME280;26823;42.662;23.352;2023-02-02T13:34:49;94578.94;;;9.35;36.72
41078;BME280;26823;42.662;23.352;2023-02-02T13:40:27;94569.06;;;9.05;37.05
41078;BME280;26823;42.662;23.352;2023-02-02T13:51:32;94579.41;;;8.51;36.68
41078;BME280;26823;42.662;23.352;2023-02-02T13:56:57;94553.28;;;8.52;36.58
41078;BME280;26823;42.662;23.352;2023-02-02T14:00:26;94587.22;;;8.63;37.13
41078;BME280;26823;42.662;23.352;2023-02-02T14:02:32;94583.38;;;8.95;37.30
41078;BME280;26823;42.662;23.352;2023-02-02T14:05:01;94570.94;;;9.04;37.23
41078;BME280;26823;42.662;23.352;2023-02-02T14:07:40;94583.56;;;9.19;37.36
41078;BME280;26823;42.662;23.352;2023-02-02T14:10:22;94576.53;;;9.28;37.50
41078;BME280;26823;42.662;23.352;2023-02-02T14:12:49;94588.22;;;9.08;38.49
41078;BME280;26823;42.662;23.352;2023-02-02T14:15:15;94570.84;;;9.35;39.66
41078;BME280;26823;42.662;23.352;2023-02-02T14:26:10;94567.53;;;8.52;43.31
41078;BME280;26823;42.662;23.352;2023-02-02T14:28:47;94546.50;;;8.13;44.05
41078;BME280;26823;42.662;23.352;2023-02-02T14:31:41;94578.84;;;7.97;44.32
41078;BME280;26823;42.662;23.352;2023-02-02T14:34:27;94588.81;;;8.18;44.81
41078;BME280;26823;42.662;23.352;2023-02-02T14:45:43;94598.88;;;7.43;48.27
41078;BME280;26823;42.662;23.352;2023-02-02T14:48:17;94671.13;;;7.72;49.17
41078;BME280;26823;42.662;23.352;2023-02-02T14:50:46;94701.38;;;7.31;56.01
41078;BME280;26823;42.662;23.352;2023-02-02T14:56:10;94721.03;;;5.85;70.70
41078;BME280;26823;42.662;23.352;2023-02-02T14:58:56;94731.81;;;5.23;74.34
41078;BME280;26823;42.662;23.352;2023-02-02T15:01:27;94727.06;;;4.57;78.88
41078;BME280;26823;42.662;23.352;2023-02-02T15:06:48;94761.81;;;3.95;82.40
41078;BME280;26823;42.662;23.352;2023-02-02T15:14:35;94782.22;;;3.72;85.21
41078;BME280;26823;42.662;23.352;2023-02-02T15:19:54;94786.59;;;3.25;86.42
41078;BME280;26823;42.662;23.352;2023-02-02T15:22:32;94806.69;;;3.04;87.81
41078;BME280;26823;42.662;23.352;2023-02-02T15:25:03;94825.28;;;3.23;87.66
41078;BME280;26823;42.662;23.352;2023-02-02T15:27:32;94813.09;;;2.91;87.20
41078;BME280;26823;42.662;23.352;2023-02-02T15:30:04;94822.34;;;2.77;88.11
41078;BME280;26823;42.662;23.352;2023-02-02T15:32:31;94798.72;;;2.62;88.98
41078;BME280;26823;42.662;23.352;2023-02-02T15:35:02;94787.25;;;2.61;90.25
41078;BME280;26823;42.662;23.352;2023-02-02T15:37:32;94837.97;;;2.61;89.95
41078;BME280;26823;42.662;23.352;2023-02-02T15:40:06;94842.53;;;2.61;91.03
41078;BME280;26823;42.662;23.352;2023-02-02T15:42:44;94845.09;;;2.37;91.80
41078;BME280;26823;42.662;23.352;2023-02-02T15:45:53;94831.75;;;2.37;92.23
41078;BME280;26823;42.662;23.352;2023-02-02T15:48:28;94838.72;;;2.38;92.45
41078;BME280;26823;42.662;23.352;2023-02-02T15:50:57;94846.00;;;2.31;92.87
41078;BME280;26823;42.662;23.352;2023-02-02T15:55:55;94853.88;;;2.07;93.26
41078;BME280;26823;42.662;23.352;2023-02-02T16:00:55;94862.34;;;2.04;93.26
41078;BME280;26823;42.662;23.352;2023-02-02T16:03:26;94867.59;;;1.92;93.44
41078;BME280;26823;42.662;23.352;2023-02-02T16:05:55;94839.31;;;1.73;93.45
41078;BME280;26823;42.662;23.352;2023-02-02T16:08:29;94871.25;;;1.98;93.53